Argus, CA

9:02 PM PST on March 05, 2015 (GMT -0800)
Searles Valley | Change Station
CLOSE
Current Station
Personal Weather Station
Location: Trona, CA
Elevation: 1696 ft
Nearby Weather Stations

Elev 1696 ft 35.77 °N, 117.38 °W | Updated 1 second ago

Clear
Clear
54.9 °F
Feels Like 54.9 °F
N
0.0
Wind Variable Wind from North
Gusts 0.0 mph

Today
High -- | Low -- °F
--% Chance of Precip.
Yesterday
High -- | Low -- °F
Precip. -- in
6:14 AM 5:48 PM
Full, 100% visible
Pressure 30.33 in
Visibility 10.0 miles
Clouds Clear
Dew Point 27 °F
Humidity 34%
Rainfall in
Snow Depth Not available.
UV 0 out of 12
Pollen 8.90 out of 12
Air Quality Not available.
Flu Activity Not available.
METAR KNID 060456Z 17004KT 10SM CLR 06/M01 A3031 RMK AO2 SLP270 T00611011 $

More Conditions Fewer Conditions

Pressure 30.33 in
Visibility 10.0 miles
Clouds Clear
Dew Point 27 °F
Humidity 34%
Rainfall in
Snow Depth Not available.
UV 0 out of 12
Pollen 8.90 out of 12
Air Quality Not available.
Flu Activity Not available.
METAR KNID 060456Z 17004KT 10SM CLR 06/M01 A3031 RMK AO2 SLP270 T00611011 $

More Conditions Fewer Conditions

10-Day Weather Forecast

Almanac

Astronomy

Mar. 05, 2015 Rise Set
Actual Time
Civil Twilight
Nautical Twilight
Astronomical Twilight
Moon
Length of Visible Light
Length of Day
Tomorrow will be .
, % of the Moon is Illuminated

Today's Extremes

State Highs State Lows

Community

WunderPhotos

Upload Photos

1,803,184 photos uploaded!

WunderBlogs® & News

Nearby

Air Quality

  Air Quality AQ Index Pollutant
Not available.

Snow Depth

Station Depth Elevation

Earthquake Activity

City Distance Mag. Time & Date
Minimum magnitude displayed is 2.5.

Coastal Water Temperatures

Place Temperature

Nearby Weather Stations